Glenrock, Wyoming
Current Conditions -  °F | °C
As of 11:22 AM on Thursday 29 Jan 2015 (Local Time) from KDGW Reporting Station
Few Clouds Few Clouds  
Wind Chill: 39°   Ceiling: Unl
Heat Index: 42°   Visibility: 10mi
Dew Point: 22°   Wind: 5mph
Humidity: 45%   Direction: 190°S
Pressure: 30.46"   Gusts: NA
Location:  42.86°N, 105.87°W
Report Text: KDGW 291822Z AUTO 19004KT 10SM FEW001 06/M06 A3046 RMK AO2 T00561056 $
Loading
Personal Weather Stations






























Interactive Weather Map New forecast layout! Learn more

10-Day Weather Forecast

Advertisements
Track Severe Weather on mobile